Time;durP1;ratioP1;P1;durP2;ratioP2;P2;SDS_P1;SDS_P2;PMS_P1;PMS_P2;Temp;Humidity;BMP_temperature;BMP_pressure;BME280_temperature;BME280_humidity;BME280_pressure;Samples;Min_cycle;Max_cycle;Signal;HPM_P1;HPM_P2
2022/05/23 00:01:42;;;;;;;1.48;1.00;;;13.90;99.90;;;;;;5028705;28;20284;-78
2022/05/23 00:04:07;;;;;;;5.78;0.90;;;13.70;99.90;;;;;;5013562;28;20323;-78
2022/05/23 00:06:33;;;;;;;1.00;0.60;;;13.60;99.90;;;;;;5032000;28;20025;-78
2022/05/23 00:08:59;;;;;;;1.55;0.77;;;13.60;99.90;;;;;;5029510;28;20033;-78
2022/05/23 00:11:24;;;;;;;1.85;0.70;;;13.60;99.90;;;;;;5029297;28;20058;-77
2022/05/23 00:13:50;;;;;;;13.63;1.73;;;13.60;99.90;;;;;;5029993;28;20049;-77
2022/05/23 00:16:20;;;;;;;6.72;1.60;;;13.60;99.90;;;;;;5029529;28;20026;-78
2022/05/23 00:18:46;;;;;;;1.85;0.80;;;13.60;99.90;;;;;;5032911;28;20107;-78
2022/05/23 00:21:13;;;;;;;4.75;1.08;;;13.60;99.90;;;;;;5033751;28;20083;-78
2022/05/23 00:23:39;;;;;;;2.00;0.88;;;;;;;;;;5034144;28;20504;-77
2022/05/23 00:26:05;;;;;;;1.02;0.90;;;13.60;99.90;;;;;;5015086;28;20030;-78
2022/05/23 00:28:30;;;;;;;2.88;0.80;;;13.60;99.90;;;;;;5032053;28;20026;-78
2022/05/23 00:30:56;;;;;;;2.35;0.70;;;13.60;99.90;;;;;;5015805;28;20384;-77
2022/05/23 00:36:06;;;;;;;2.58;0.63;;;13.70;99.90;;;;;;5015668;28;20106;-77
2022/05/23 00:38:33;;;;;;;0.93;0.75;;;13.80;99.90;;;;;;5029943;28;20118;-78
2022/05/23 00:44:13;;;;;;;6.10;0.93;;;13.70;99.90;;;;;;5014392;28;20037;-78
2022/05/23 00:46:54;;;;;;;2.28;0.60;;;13.70;99.90;;;;;;5014278;28;20026;-79
2022/05/23 00:49:36;;;;;;;0.60;0.60;;;13.60;99.90;;;;;;5014668;28;20115;-78
2022/05/23 00:52:06;;;;;;;3.05;0.85;;;13.60;99.90;;;;;;5015139;28;20053;-78
2022/05/23 00:54:41;;;;;;;1.42;0.90;;;13.60;99.90;;;;;;5016151;28;20030;-78
2022/05/23 00:57:11;;;;;;;2.30;0.77;;;13.60;99.90;;;;;;5015175;28;20491;-78
2022/05/23 00:59:39;;;;;;;2.75;1.10;;;13.60;99.90;;;;;;5016538;28;20108;-78
2022/05/23 01:02:07;;;;;;;0.90;0.90;;;13.70;99.90;;;;;;5032386;28;20030;-77
2022/05/23 01:04:33;;;;;;;1.77;0.70;;;13.60;99.90;;;;;;5031152;28;20033;-78
2022/05/23 01:06:59;;;;;;;2.83;1.23;;;13.60;99.90;;;;;;5016127;28;20386;-77
2022/05/23 01:09:28;;;;;;;2.00;0.80;;;13.70;99.90;;;;;;5031731;28;20064;-78
2022/05/23 01:11:56;;;;;;;;;;;13.70;99.90;;;;;;5017731;28;20060;-78
2022/05/23 01:14:22;;;;;;;2.30;1.25;;;13.70;99.90;;;;;;5014072;28;19921;-78
2022/05/23 01:16:48;;;;;;;1.30;0.85;;;13.80;99.90;;;;;;5030777;28;20164;-78
2022/05/23 01:19:14;;;;;;;1.92;0.73;;;13.90;99.90;;;;;;5014994;28;20125;-78
2022/05/23 01:21:58;;;;;;;6.28;1.20;;;13.80;99.90;;;;;;5015255;28;20045;-78
2022/05/23 01:24:32;;;;;;;2.35;1.42;;;13.80;99.90;;;;;;5030802;28;20386;-78
2022/05/23 01:26:59;;;;;;;1.92;0.90;;;13.90;99.90;;;;;;5015818;28;20374;-77
2022/05/23 01:29:26;;;;;;;1.92;0.95;;;13.90;99.90;;;;;;5031479;28;20033;-77
2022/05/23 01:31:55;;;;;;;6.13;0.75;;;13.90;99.90;;;;;;5015666;28;20021;-77
2022/05/23 01:34:21;;;;;;;1.73;0.87;;;13.90;99.90;;;;;;5030610;28;20037;-77
2022/05/23 01:36:48;;;;;;;1.50;1.40;;;13.90;99.90;;;;;;5030055;28;20018;-77
2022/05/23 01:39:13;;;;;;;3.08;0.90;;;14.00;99.90;;;;;;5015764;28;20029;-77
2022/05/23 01:41:39;;;;;;;1.25;0.77;;;14.00;99.90;;;;;;5017486;28;20026;-77
2022/05/23 01:44:05;;;;;;;6.70;1.75;;;14.00;99.90;;;;;;5031378;28;20034;-78
2022/05/23 01:46:31;;;;;;;1.25;1.02;;;14.10;99.90;;;;;;5029073;28;20030;-78
2022/05/23 01:48:57;;;;;;;1.65;1.10;;;14.20;99.90;;;;;;5016192;28;20090;-77
2022/05/23 01:51:22;;;;;;;0.82;0.82;;;14.20;99.90;;;;;;5032754;28;20506;-77
2022/05/23 01:53:49;;;;;;;3.40;0.90;;;14.30;99.90;;;;;;5016068;28;20042;-78
2022/05/23 01:56:14;;;;;;;1.00;1.00;;;14.20;99.90;;;;;;5017189;28;20057;-78
2022/05/23 02:01:25;;;;;;;2.90;1.48;;;14.50;99.90;;;;;;5014837;28;20028;-77
2022/05/23 02:03:52;;;;;;;1.35;1.25;;;14.80;99.90;;;;;;5014382;28;20026;-77
2022/05/23 02:06:24;;;;;;;4.30;1.55;;;15.00;99.90;;;;;;5015223;28;20037;-77
2022/05/23 02:08:50;;;;;;;2.95;2.00;;;15.60;99.90;;;;;;5014104;28;20113;-77
2022/05/23 02:11:16;;;;;;;5.57;1.95;;;15.80;99.90;;;;;;5028415;28;20104;-77
2022/05/23 02:13:44;;;;;;;1.65;1.30;;;16.00;99.90;;;;;;5013164;28;20042;-78
2022/05/23 02:16:10;;;;;;;3.05;1.50;;;16.10;99.90;;;;;;5014341;28;20045;-78
2022/05/23 02:18:36;;;;;;;3.03;2.33;;;16.00;99.90;;;;;;5029707;28;20052;-78
2022/05/23 02:21:02;;;;;;;3.15;1.67;;;16.00;99.90;;;;;;5031295;28;20029;-77
2022/05/23 02:23:27;;;;;;;4.20;1.60;;;16.00;99.90;;;;;;5014803;28;20410;-78
2022/05/23 02:25:53;;;;;;;7.05;3.38;;;15.90;99.90;;;;;;5029530;28;20528;-78
2022/05/23 02:28:19;;;;;;;3.80;2.00;;;16.00;99.90;;;;;;5013030;28;20110;-79
2022/05/23 02:30:47;;;;;;;2.00;1.60;;;16.00;99.90;;;;;;5028269;28;20033;-76
2022/05/23 02:33:13;;;;;;;4.65;2.55;;;16.00;99.90;;;;;;5027388;28;20441;-77
2022/05/23 02:35:39;;;;;;;2.85;1.77;;;16.10;99.90;;;;;;5031821;28;20630;-77
2022/05/23 02:38:05;;;;;;;2.55;1.48;;;16.20;99.90;;;;;;5032208;28;20038;-77
2022/05/23 02:40:31;;;;;;;2.88;2.50;;;16.20;99.90;;;;;;5015514;28;20026;-78
2022/05/23 02:42:56;;;;;;;2.17;1.40;;;16.30;99.90;;;;;;5029771;28;20129;-77
2022/05/23 02:45:25;;;;;;;3.88;1.60;;;16.20;99.90;;;;;;5030230;28;20017;-77
2022/05/23 02:48:07;;;;;;;2.78;1.88;;;16.30;99.90;;;;;;5017238;28;20109;-78
2022/05/23 02:50:32;;;;;;;5.93;1.73;;;16.30;99.90;;;;;;5037221;28;20058;-77
2022/05/23 02:52:58;;;;;;;1.77;1.40;;;16.20;99.90;;;;;;5035853;28;20033;-77
2022/05/23 02:55:24;;;;;;;7.13;3.05;;;16.30;99.90;;;;;;5036589;28;20034;-77
2022/05/23 02:57:50;;;;;;;2.88;1.27;;;16.30;99.90;;;;;;5019415;28;20025;-77
2022/05/23 03:00:16;;;;;;;2.65;1.52;;;16.20;99.90;;;;;;5016475;28;20590;-77
2022/05/23 03:05:26;;;;;;;4.38;1.48;;;16.20;99.90;;;;;;5014082;28;20125;-77
2022/05/23 03:07:53;;;;;;;6.38;2.67;;;16.30;99.90;;;;;;5015025;28;20022;-76
2022/05/23 03:10:19;;;;;;;3.42;2.22;;;16.30;99.90;;;;;;5014946;28;20486;-76
2022/05/23 03:12:45;;;;;;;2.97;1.77;;;16.40;99.90;;;;;;5014116;28;20113;-77
2022/05/23 03:15:11;;;;;;;1.48;1.20;;;16.40;99.90;;;;;;5014093;28;20550;-76
2022/05/23 03:17:38;;;;;;;2.63;1.30;;;16.40;99.90;;;;;;5029533;28;20033;-77
2022/05/23 03:20:04;;;;;;;2.42;1.42;;;16.30;99.90;;;;;;5015033;28;20050;-76
2022/05/23 03:28:00;;;;;;;4.63;1.50;;;16.10;99.90;;;;;;5016466;28;20391;-81
2022/05/23 03:30:26;;;;;;;2.22;1.48;;;16.00;99.90;;;;;;5028636;28;20018;-78
2022/05/23 03:32:51;;;;;;;1.67;1.58;;;15.90;99.90;;;;;;5028431;28;20025;-77
2022/05/23 03:35:17;;;;;;;1.30;1.20;;;15.80;99.90;;;;;;5028218;28;20034;-77
2022/05/23 03:37:43;;;;;;;3.03;1.70;;;15.60;99.90;;;;;;5013194;28;20105;-77
2022/05/23 03:40:09;;;;;;;2.42;1.73;;;15.50;99.90;;;;;;5013160;28;20018;-77
2022/05/23 03:42:35;;;;;;;2.15;1.88;;;15.40;99.90;;;;;;5012971;28;20443;-77
2022/05/23 03:45:01;;;;;;;1.70;1.60;;;15.40;99.90;;;;;;5016044;28;20061;-77
2022/05/23 03:47:27;;;;;;;2.00;1.83;;;15.50;99.90;;;;;;5032425;28;20029;-78
2022/05/23 03:49:53;;;;;;;3.13;1.67;;;15.50;99.90;;;;;;5013117;28;20033;-77
2022/05/23 03:52:20;;;;;;;2.78;1.40;;;15.40;99.90;;;;;;5012793;28;20053;-77
2022/05/23 03:54:46;;;;;;;2.05;1.20;;;15.40;99.90;;;;;;5012833;28;20116;-77
2022/05/23 03:57:12;;;;;;;1.55;1.17;;;15.30;99.90;;;;;;5012902;28;20025;-77
2022/05/23 03:59:38;;;;;;;3.92;2.08;;;15.30;99.90;;;;;;5014467;28;20018;-77
2022/05/23 04:02:04;;;;;;;2.15;1.40;;;15.30;99.90;;;;;;5022524;28;20080;-77
2022/05/23 04:04:33;;;;;;;4.05;1.60;;;15.30;99.90;;;;;;5035052;28;20022;-77
2022/05/23 04:07:02;;;;;;;2.00;1.80;;;15.20;99.90;;;;;;5018124;28;20033;-77
2022/05/23 04:09:29;;;;;;;2.45;1.30;;;15.20;99.90;;;;;;5028777;28;20056;-77
2022/05/23 04:11:56;;;;;;;1.95;1.60;;;15.20;99.90;;;;;;5013033;28;20034;-78
2022/05/23 04:14:22;;;;;;;3.17;1.30;;;15.20;99.90;;;;;;5016712;28;20231;-77
2022/05/23 04:16:48;;;;;;;1.40;1.30;;;17.30;99.90;;;;;;5014233;28;20153;-77
2022/05/23 04:19:15;;;;;;;2.05;1.73;;;15.20;99.90;;;;;;5022350;28;20057;-77
2022/05/23 04:21:43;;;;;;;3.65;1.52;;;15.30;99.90;;;;;;5031198;28;20046;-77
2022/05/23 04:24:09;;;;;;;1.40;1.30;;;15.20;99.90;;;;;;5015883;28;20033;-77
2022/05/23 04:26:36;;;;;;;2.80;1.45;;;15.20;99.90;;;;;;5031257;28;20034;-77
2022/05/23 04:29:02;;;;;;;2.35;1.33;;;15.20;99.90;;;;;;5044557;28;20018;-76
2022/05/23 04:31:28;;;;;;;2.08;1.88;;;15.20;99.90;;;;;;5052601;28;20093;-77
2022/05/23 04:36:38;;;;;;;1.80;1.05;;;15.20;99.90;;;;;;5015904;28;20378;-80
2022/05/23 04:39:04;;;;;;;1.88;1.50;;;15.20;99.90;;;;;;5012547;28;20033;-87
2022/05/23 04:41:30;;;;;;;2.97;1.25;;;15.20;99.90;;;;;;5028602;28;20028;-84
2022/05/23 04:43:56;;;;;;;3.42;1.80;;;15.20;99.90;;;;;;5012596;28;20030;-90
2022/05/23 04:46:21;;;;;;;2.70;1.20;;;15.20;99.90;;;;;;5026098;28;20033;-82
2022/05/23 04:51:32;;;;;;;2.47;1.58;;;15.20;99.90;;;;;;5017514;28;20337;-85
2022/05/23 04:53:57;;;;;;;1.58;1.45;;;15.30;99.90;;;;;;5017741;28;20030;-89
2022/05/23 04:56:25;;;;;;;2.05;1.60;;;15.30;99.90;;;;;;5012161;28;20028;-86
2022/05/23 04:58:51;;;;;;;2.60;1.67;;;15.50;99.90;;;;;;5011097;28;20390;-78
2022/05/23 05:01:17;;;;;;;1.83;1.58;;;15.50;99.90;;;;;;5016876;28;20032;-84
2022/05/23 05:03:43;;;;;;;2.28;1.77;;;15.70;99.90;;;;;;5011034;28;20109;-77
2022/05/23 05:06:09;;;;;;;2.25;1.38;;;15.80;99.90;;;;;;5013838;28;20041;-86
2022/05/23 05:08:35;;;;;;;2.50;1.63;;;16.00;99.90;;;;;;4995386;28;20487;-85
2022/05/23 05:11:05;;;;;;;6.10;2.65;;;16.10;99.90;;;;;;4990647;28;20030;-81
2022/05/23 05:13:36;;;;;;;5.70;1.70;;;16.20;99.90;;;;;;4989099;28;20018;-81
2022/05/23 05:16:02;;;;;;;1.85;1.67;;;16.30;99.90;;;;;;4991377;28;20023;-80
2022/05/23 05:18:30;;;;;;;4.60;1.67;;;16.40;99.90;;;;;;4951382;28;1213608;-78
2022/05/23 05:20:57;;;;;;;5.25;1.73;;;16.50;99.90;;;;;;4996369;28;20030;-78
2022/05/23 05:23:24;;;;;;;1.60;1.50;;;16.60;99.90;;;;;;4999384;28;20097;-77
2022/05/23 05:25:52;;;;;;;2.40;1.25;;;16.70;99.90;;;;;;5000150;28;20340;-77
2022/05/23 05:28:18;;;;;;;2.47;1.60;;;16.70;99.90;;;;;;5000341;28;20397;-77
2022/05/23 05:30:51;;;;;;;2.40;1.20;;;16.90;99.90;;;;;;4991589;28;20030;-76
2022/05/23 05:33:20;;;;;;;2.05;1.42;;;17.00;99.90;;;;;;4991046;28;20054;-78
2022/05/23 05:35:49;;;;;;;;;;;17.10;99.90;;;;;;4997478;28;20210;-78
2022/05/23 05:38:37;;;;;;;7.30;2.55;;;17.20;99.90;;;;;;4996780;28;19905;-80
2022/05/23 05:41:11;;;;;;;1.50;1.40;;;17.30;99.90;;;;;;4991201;28;20097;-80
2022/05/23 05:43:46;;;;;;;2.10;1.40;;;17.60;99.90;;;;;;4989487;28;20129;-81
2022/05/23 05:46:16;;;;;;;1.55;1.45;;;17.80;99.90;;;;;;4996555;28;20018;-80
2022/05/23 05:48:46;;;;;;;3.15;1.30;;;18.10;99.90;;;;;;4999556;28;20277;-79
2022/05/23 05:51:13;;;;;;;3.22;1.50;;;18.20;99.90;;;;;;4999397;28;20014;-80
2022/05/23 05:53:40;;;;;;;1.40;1.20;;;18.20;99.90;;;;;;4995348;28;20046;-80
2022/05/23 05:56:06;;;;;;;1.30;1.10;;;18.30;99.90;;;;;;4995321;28;20054;-91
2022/05/23 05:58:33;;;;;;;4.93;1.88;;;18.30;99.90;;;;;;4999221;28;20049;-79
2022/05/23 06:00:59;;;;;;;2.63;1.40;;;18.30;99.90;;;;;;4996530;28;20023;-80
2022/05/23 06:03:25;;;;;;;3.25;1.40;;;18.20;99.90;;;;;;4995761;28;20435;-88
2022/05/23 06:13:59;;;;;;;2.03;1.63;;;18.30;99.90;;;;;;4994926;28;20253;-84
2022/05/23 06:16:27;;;;;;;4.95;2.05;;;18.30;99.90;;;;;;4989347;28;20037;-79
2022/05/23 06:18:53;;;;;;;3.40;2.05;;;18.50;99.90;;;;;;4988630;28;20060;-80
2022/05/23 06:21:19;;;;;;;1.65;1.42;;;18.70;99.90;;;;;;4990412;28;20069;-76
2022/05/23 06:23:48;;;;;;;3.25;1.85;;;18.90;99.90;;;;;;4990724;28;20114;-77
2022/05/23 06:26:20;;;;;;;3.97;2.50;;;19.20;99.90;;;;;;4989411;28;20109;-76
2022/05/23 06:28:47;;;;;;;2.50;1.73;;;19.40;99.90;;;;;;4990574;28;20133;-77
2022/05/23 06:31:13;;;;;;;3.50;1.50;;;19.50;99.90;;;;;;4989167;28;20049;-77
2022/05/23 06:33:39;;;;;;;2.85;1.83;;;19.70;99.90;;;;;;4989971;28;20036;-78
2022/05/23 06:36:05;;;;;;;3.10;1.70;;;20.00;99.90;;;;;;4996882;28;20117;-78
2022/05/23 06:38:32;;;;;;;3.45;1.83;;;19.90;99.90;;;;;;5009527;28;20556;-78
2022/05/23 06:40:58;;;;;;;5.13;2.05;;;20.30;99.90;;;;;;5009699;28;20037;-77
2022/05/23 06:43:24;;;;;;;2.22;1.60;;;20.70;99.90;;;;;;5009854;28;20030;-77
2022/05/23 06:45:50;;;;;;;2.55;1.67;;;21.20;99.90;;;;;;5010037;28;20089;-80
2022/05/23 06:48:16;;;;;;;2.47;2.15;;;21.30;99.90;;;;;;5009727;28;20443;-77
2022/05/23 06:50:44;;;;;;;3.10;2.15;;;21.60;99.90;;;;;;5029276;28;20057;-81
2022/05/23 06:53:10;;;;;;;2.30;2.10;;;22.40;99.90;;;;;;5015640;28;20022;-80
2022/05/23 06:55:35;;;;;;;4.28;2.25;;;23.10;99.90;;;;;;5022653;28;20034;-80
2022/05/23 06:58:01;;;;;;;3.05;1.85;;;23.70;99.90;;;;;;5014758;28;20048;-84
2022/05/23 07:00:27;;;;;;;2.55;1.55;;;24.00;99.90;;;;;;5028891;28;20281;-80
2022/05/23 07:02:53;;;;;;;2.75;1.92;;;24.50;99.90;;;;;;5013791;28;20040;-86
2022/05/23 07:13:34;;;;;;;4.30;2.20;;;23.40;99.90;;;;;;5003971;28;20049;-88
2022/05/23 07:16:00;;;;;;;4.03;2.15;;;22.70;99.90;;;;;;5014813;28;20037;-89
2022/05/23 07:18:27;;;;;;;4.60;2.38;;;22.20;99.90;;;;;;5030865;28;20029;-85
2022/05/23 07:20:53;;;;;;;2.75;2.15;;;22.30;99.90;;;;;;5011233;28;20455;-85
2022/05/23 07:23:19;;;;;;;6.50;2.83;;;21.80;99.90;;;;;;5026868;28;20099;-85
2022/05/23 07:25:45;;;;;;;6.30;1.90;;;22.10;99.90;;;;;;5016589;28;20033;-86
2022/05/23 07:28:11;;;;;;;4.75;2.55;;;22.20;99.90;;;;;;5031449;28;20379;-88
2022/05/23 07:30:37;;;;;;;4.15;2.22;;;22.80;99.90;;;;;;5028581;28;20372;-87
2022/05/23 07:33:03;;;;;;;3.17;1.73;;;23.20;99.90;;;;;;5031470;28;20025;-88
2022/05/23 07:35:29;;;;;;;2.40;1.70;;;23.30;99.90;;;;;;5027418;28;20065;-87
2022/05/23 07:37:54;;;;;;;4.45;2.28;;;23.40;99.90;;;;;;5018409;28;20038;-82
2022/05/23 07:40:20;;;;;;;3.20;1.77;;;23.20;99.90;;;;;;5030581;28;20129;-87
2022/05/23 07:42:47;;;;;;;3.30;1.55;;;22.90;99.90;;;;;;5008261;28;20022;-79
2022/05/23 07:45:14;;;;;;;6.13;1.95;;;22.60;99.90;;;;;;5022131;28;20026;-81
2022/05/23 07:47:40;;;;;;;4.50;1.90;;;22.00;99.90;;;;;;5006990;28;20281;-84
2022/05/23 07:50:10;;;;;;;4.43;1.45;;;22.40;99.90;;;;;;5010922;28;20073;-80
2022/05/23 07:52:36;;;;;;;2.47;1.55;;;22.40;99.90;;;;;;5015800;28;20073;-80
2022/05/23 08:00:35;;;;;;;2.92;1.23;;;24.00;99.90;;;;;;4986950;28;20217;-81
2022/05/23 08:03:16;;;;;;;3.97;1.23;;;24.30;99.90;;;;;;4986363;28;20443;-80
2022/05/23 08:05:43;;;;;;;2.85;1.42;;;24.10;99.90;;;;;;4986624;28;20256;-82
2022/05/23 08:08:08;;;;;;;1.95;1.10;;;23.60;99.90;;;;;;4987647;28;20026;-80
2022/05/23 08:10:34;;;;;;;4.40;1.35;;;23.10;99.90;;;;;;5004970;28;20034;-81
2022/05/23 08:13:03;;;;;;;1.88;1.75;;;22.70;99.90;;;;;;4988614;28;20447;-80
2022/05/23 08:15:29;;;;;;;2.17;1.30;;;22.40;99.90;;;;;;4988651;28;20038;-81
2022/05/23 08:17:55;;;;;;;3.17;1.10;;;21.60;99.90;;;;;;4988775;28;20037;-83
2022/05/23 08:20:21;;;;;;;5.20;1.58;;;21.60;99.90;;;;;;5004104;28;20061;-85
2022/05/23 08:22:51;;;;;;;2.80;1.40;;;21.10;99.90;;;;;;5004081;28;20109;-80
2022/05/23 08:25:18;;;;;;;1.92;1.33;;;20.60;99.90;;;;;;5002896;28;20451;-79
2022/05/23 08:27:44;;;;;;;3.90;1.50;;;19.00;99.90;;;;;;4987675;28;20018;-77
2022/05/23 08:30:10;;;;;;;4.15;1.50;;;18.90;99.90;;;;;;4987303;28;20426;-77
2022/05/23 08:32:36;;;;;;;3.00;1.80;;;18.40;99.90;;;;;;4988379;28;20031;-76
2022/05/23 08:35:02;;;;;;;5.18;2.10;;;18.20;99.90;;;;;;4988055;28;20560;-78
2022/05/23 08:37:27;;;;;;;7.07;2.67;;;18.10;99.90;;;;;;4988676;28;20065;-77
2022/05/23 08:39:53;;;;;;;4.10;1.95;;;18.20;99.90;;;;;;4988085;28;20129;-77
2022/05/23 08:42:45;;;;;;;4.47;2.35;;;18.30;99.90;;;;;;4989110;28;20061;-78
2022/05/23 08:45:14;;;;;;;4.20;2.00;;;18.40;99.90;;;;;;4986878;28;20014;-78
2022/05/23 08:47:55;;;;;;;2.78;2.35;;;18.50;99.90;;;;;;4987617;28;20035;-78
2022/05/23 08:50:33;;;;;;;4.95;2.38;;;18.50;99.90;;;;;;4995361;28;20022;-78
2022/05/23 08:53:08;;;;;;;3.50;2.75;;;18.40;99.90;;;;;;5007112;28;20386;-78
2022/05/23 08:55:40;;;;;;;2.40;1.92;;;18.40;99.90;;;;;;5007677;28;20184;-77
2022/05/23 08:58:13;;;;;;;2.58;2.22;;;18.40;99.90;;;;;;5008754;28;20083;-77
2022/05/23 09:00:47;;;;;;;3.22;2.33;;;18.20;99.90;;;;;;5012850;28;20018;-77
2022/05/23 09:03:38;;;;;;;5.68;2.60;;;17.70;99.90;;;;;;5017114;28;20180;-77
2022/05/23 09:06:30;;;;;;;8.73;4.40;;;17.60;99.90;;;;;;5013421;28;20040;-77
2022/05/23 09:08:59;;;;;;;7.47;4.15;;;17.10;99.90;;;;;;5009296;28;20796;-75
2022/05/23 09:11:39;;;;;;;8.77;3.55;;;16.70;99.90;;;;;;5012833;28;20026;-77
2022/05/23 09:14:07;;;;;;;2.92;2.35;;;16.60;99.90;;;;;;5014582;28;20077;-76
2022/05/23 09:16:44;;;;;;;2.55;2.00;;;16.50;99.90;;;;;;5014164;28;20041;-76
2022/05/23 09:19:22;;;;;;;5.55;2.10;;;16.40;99.90;;;;;;5014737;28;20049;-76
2022/05/23 09:24:43;;;;;;;4.47;2.33;;;16.30;99.90;;;;;;5016150;28;20041;-75
2022/05/23 09:27:26;;;;;;;4.72;2.60;;;16.20;99.90;;;;;;5009439;28;20034;-78
2022/05/23 09:29:55;;;;;;;12.48;3.03;;;16.20;99.90;;;;;;5010864;28;20422;-79
2022/05/23 09:32:44;;;;;;;8.38;2.10;;;16.20;99.90;;;;;;5010227;28;20076;-79
2022/05/23 09:35:18;;;;;;;6.15;2.95;;;16.20;99.90;;;;;;5003162;28;20034;-78
2022/05/23 09:37:47;;;;;;;5.45;2.78;;;16.20;99.90;;;;;;5008690;28;20506;-77
2022/05/23 09:40:30;;;;;;;5.15;2.42;;;16.20;99.90;;;;;;5009913;28;20026;-76
2022/05/23 09:47:44;;;;;;;4.70;2.78;;;16.20;99.90;;;;;;5007935;28;20490;-76
2022/05/23 09:49:15;;;;;;;3.65;2.35;;;16.20;99.90;;;;;;5007450;28;20483;-77
2022/05/23 09:51:56;;;;;;;4.78;2.50;;;16.20;99.90;;;;;;5002788;28;20119;-77
2022/05/23 09:54:49;;;;;;;7.78;2.40;;;16.30;99.90;;;;;;4988180;28;20042;-79
2022/05/23 09:57:32;;;;;;;9.18;3.05;;;16.30;99.90;;;;;;4986723;28;20027;-77
2022/05/23 10:00:02;;;;;;;3.53;2.08;;;16.30;99.90;;;;;;5001238;28;20030;-77
2022/05/23 10:02:31;;;;;;;7.22;2.20;;;16.30;99.90;;;;;;5001331;28;20033;-78
2022/05/23 10:04:57;;;;;;;2.65;2.08;;;16.50;99.90;;;;;;4986349;28;20049;-80
2022/05/23 10:07:32;;;;;;;2.33;1.63;;;16.60;99.90;;;;;;5001239;28;20454;-77
2022/05/23 10:10:03;;;;;;;2.50;2.20;;;16.70;99.90;;;;;;4986607;28;20207;-77
2022/05/23 10:12:30;;;;;;;4.97;2.28;;;17.60;99.90;;;;;;4987716;28;20062;-77
2022/05/23 10:15:12;;;;;;;4.57;2.15;;;17.10;99.90;;;;;;4987769;28;20449;-77
2022/05/23 10:17:41;;;;;;;3.35;2.10;;;17.50;99.90;;;;;;5002578;28;20505;-77
2022/05/23 10:20:24;;;;;;;1.92;1.77;;;17.80;99.90;;;;;;4986067;28;20042;-77
2022/05/23 10:22:56;;;;;;;1.80;1.33;;;18.30;99.90;;;;;;5001191;28;20399;-78
2022/05/23 10:25:25;;;;;;;3.20;1.88;;;18.90;99.90;;;;;;4986384;28;20050;-78
2022/05/23 10:28:02;;;;;;;4.20;1.98;;;19.40;99.90;;;;;;5000753;28;20018;-78
2022/05/23 10:30:33;;;;;;;2.95;1.30;;;20.00;99.90;;;;;;4985816;28;20078;-79
2022/05/23 10:33:13;;;;;;;2.30;1.10;;;21.00;99.90;;;;;;4986616;28;20097;-80
2022/05/23 10:36:00;;;;;;;1.63;1.45;;;21.50;99.90;;;;;;4986887;28;20030;-80
2022/05/23 10:45:01;;;;;;;2.75;0.90;;;22.80;99.90;;;;;;5023950;28;20048;-80
2022/05/23 10:47:36;;;;;;;4.07;1.37;;;23.10;99.90;;;;;;5023539;28;20402;-78
2022/05/23 10:50:34;;;;;;;2.22;0.95;;;23.60;99.90;;;;;;5005047;28;20497;-78
2022/05/23 10:53:12;;;;;;;2.13;1.10;;;23.50;99.90;;;;;;5006472;28;20095;-78
2022/05/23 10:56:40;;;;;;;1.20;0.98;;;23.60;99.90;;;;;;5010897;28;20050;-78
2022/05/23 10:59:14;;;;;;;3.67;1.33;;;24.00;99.90;;;;;;4961804;28;20130;-78
2022/05/23 11:02:28;;;;;;;2.38;1.02;;;23.90;99.90;;;;;;5006173;28;20120;-79
2022/05/23 11:05:11;;;;;;;3.70;1.35;;;24.00;99.90;;;;;;4991595;28;20084;-79
2022/05/23 11:07:57;;;;;;;1.52;0.93;;;24.20;99.90;;;;;;5004365;28;20479;-79
2022/05/23 11:10:42;;;;;;;5.28;1.58;;;25.00;99.90;;;;;;4993246;28;20033;-79
2022/05/23 11:13:19;;;;;;;1.00;0.80;;;25.30;99.90;;;;;;5003406;28;20108;-79
2022/05/23 11:16:03;;;;;;;2.88;1.20;;;25.70;99.90;;;;;;5004604;28;20108;-79
2022/05/23 11:19:01;;;;;;;1.60;0.80;;;26.30;99.90;;;;;;5003134;28;20034;-79
2022/05/23 11:21:37;;;;;;;3.25;1.00;;;27.00;99.90;;;;;;4971038;28;20583;-79
2022/05/23 11:24:24;;;;;;;4.72;2.00;;;26.80;99.90;;;;;;5005863;28;20088;-79
2022/05/23 11:26:54;;;;;;;2.35;1.00;;;26.80;99.90;;;;;;5004844;28;20030;-80
2022/05/23 11:35:12;;;;;;;3.97;1.65;;;26.80;99.90;;;;;;5005509;28;20107;-80
2022/05/23 11:37:49;;;;;;;3.65;0.90;;;26.70;99.90;;;;;;5005193;28;20054;-80
2022/05/23 11:40:30;;;;;;;6.25;1.40;;;26.50;99.90;;;;;;5004684;28;20084;-79
2022/05/23 11:43:00;;;;;;;1.55;0.70;;;26.80;99.90;;;;;;5006912;28;20033;-79
2022/05/23 11:48:45;;;;;;;1.15;1.00;;;25.50;99.90;;;;;;5014498;28;20211;-79
2022/05/23 11:51:38;;;;;;;2.55;1.52;;;25.00;99.90;;;;;;5011395;28;20034;-80
2022/05/23 11:54:06;;;;;;;3.28;1.30;;;24.80;99.90;;;;;;5031619;28;20033;-79
2022/05/23 11:56:40;;;;;;;2.33;1.08;;;24.60;99.90;;;;;;5023866;28;20022;-79
2022/05/23 11:59:09;;;;;;;1.65;1.17;;;25.50;99.90;;;;;;5009106;28;20553;-79
2022/05/23 12:01:35;;;;;;;5.50;2.03;;;26.60;99.90;;;;;;5023319;28;20061;-79
2022/05/23 12:04:01;;;;;;;2.53;1.13;;;27.00;99.90;;;;;;5008564;28;20017;-80
2022/05/23 12:06:29;;;;;;;6.82;1.63;;;27.70;99.90;;;;;;5008383;28;20022;-80
2022/05/23 12:09:13;;;;;;;3.08;1.45;;;27.40;99.90;;;;;;5008053;28;20208;-81
2022/05/23 12:11:45;;;;;;;1.75;1.20;;;26.90;99.90;;;;;;5007458;28;20558;-81
2022/05/23 12:14:16;;;;;;;2.47;1.35;;;27.10;99.90;;;;;;5023159;28;20340;-81
2022/05/23 12:17:01;;;;;;;3.88;1.35;;;27.50;99.90;;;;;;5009365;28;20461;-82
2022/05/23 12:19:38;;;;;;;4.82;1.08;;;27.70;99.90;;;;;;5023224;28;20049;-79
2022/05/23 12:22:27;;;;;;;2.63;1.38;;;28.00;99.90;;;;;;5006481;28;20509;-80
2022/05/23 12:25:07;;;;;;;6.05;1.33;;;27.50;99.90;;;;;;5023079;28;20302;-82
2022/05/23 12:27:33;;;;;;;3.50;1.00;;;26.60;99.90;;;;;;5007125;28;20269;-86
2022/05/23 12:30:32;;;;;;;1.83;0.90;;;26.10;99.90;;;;;;5008316;28;20339;-85
2022/05/23 12:32:58;;;;;;;3.40;1.73;;;26.80;99.90;;;;;;5019145;28;20033;-82
2022/05/23 12:35:42;;;;;;;3.60;1.30;;;27.90;99.90;;;;;;5008740;28;20088;-81
2022/05/23 12:38:22;;;;;;;6.50;1.88;;;27.50;99.90;;;;;;5007670;28;20033;-83
2022/05/23 12:41:10;;;;;;;1.90;1.00;;;26.80;99.90;;;;;;5007412;28;20513;-82
2022/05/23 12:44:07;;;;;;;3.10;1.10;;;26.90;99.90;;;;;;5008172;28;20073;-81
2022/05/23 12:46:53;;;;;;;2.15;1.05;;;26.50;99.90;;;;;;5010040;28;20127;-85
2022/05/23 12:49:28;;;;;;;2.55;1.10;;;27.30;99.90;;;;;;5010195;28;20148;-88
2022/05/23 12:52:35;;;;;;;3.22;1.60;;;28.00;99.90;;;;;;5012081;28;20034;-90
2022/05/23 12:55:31;;;;;;;2.28;1.13;;;27.70;99.90;;;;;;5010294;28;20041;-84
2022/05/23 12:58:38;;;;;;;6.35;1.30;;;26.90;99.90;;;;;;5010677;28;20022;-82
2022/05/23 13:01:08;;;;;;;2.35;1.20;;;26.10;99.90;;;;;;4988587;28;20034;-83
2022/05/23 13:03:43;;;;;;;5.75;1.00;;;25.80;99.90;;;;;;5011845;28;20025;-81
2022/05/23 13:06:18;;;;;;;3.63;1.95;;;25.70;99.90;;;;;;5010592;28;20659;-81
2022/05/23 13:08:55;;;;;;;2.38;1.30;;;25.20;99.90;;;;;;5010694;28;20033;-88
2022/05/23 13:11:27;;;;;;;1.70;1.10;;;25.00;99.90;;;;;;5012103;28;20029;-83
2022/05/23 13:13:58;;;;;;;7.15;1.90;;;25.10;99.90;;;;;;5027065;28;20118;-84
2022/05/23 13:16:25;;;;;;;3.35;1.20;;;25.10;99.90;;;;;;5027133;28;20029;-83
2022/05/23 13:27:39;;;;;;;4.90;1.55;;;24.40;99.90;;;;;;5008631;28;20030;-82
2022/05/23 13:30:17;;;;;;;;;;;24.40;99.90;;;;;;5024550;28;20062;-81
2022/05/23 13:32:43;;;;;;;5.88;1.48;;;24.60;99.90;;;;;;5011188;28;19946;-81
2022/05/23 13:35:19;;;;;;;4.38;1.52;;;24.50;99.90;;;;;;5010532;28;20088;-82
2022/05/23 13:37:45;;;;;;;1.52;1.10;;;24.30;99.90;;;;;;5026438;28;20018;-81
2022/05/23 13:40:24;;;;;;;2.47;1.10;;;24.30;99.90;;;;;;5026562;28;20088;-82
2022/05/23 13:42:50;;;;;;;4.57;1.35;;;24.30;99.90;;;;;;5026551;28;20025;-82
2022/05/23 13:45:18;;;;;;;2.92;1.40;;;24.20;99.90;;;;;;5011309;28;20100;-82
2022/05/23 13:47:59;;;;;;;2.00;1.60;;;24.00;99.90;;;;;;5011082;28;20096;-81
2022/05/23 13:50:35;;;;;;;5.80;1.38;;;23.90;99.90;;;;;;5013890;28;20517;-80
2022/05/23 13:53:21;;;;;;;5.78;2.55;;;23.80;99.90;;;;;;5026719;28;20034;-83
2022/05/23 13:55:49;;;;;;;3.67;1.10;;;23.90;99.90;;;;;;5025911;28;20049;-81
2022/05/23 13:58:24;;;;;;;3.67;1.15;;;23.70;99.90;;;;;;5026590;28;20028;-84
2022/05/23 14:00:58;;;;;;;4.50;1.77;;;23.70;99.90;;;;;;5026383;28;20062;-83
2022/05/23 14:03:26;;;;;;;2.45;1.27;;;23.70;99.90;;;;;;5026015;28;20429;-83
2022/05/23 14:05:54;;;;;;;5.38;1.08;;;23.80;99.90;;;;;;5009319;28;20378;-85
2022/05/23 14:08:35;;;;;;;1.67;1.00;;;23.70;99.90;;;;;;5025982;28;20400;-85
2022/05/23 14:11:06;;;;;;;3.08;0.80;;;23.80;99.90;;;;;;5026295;28;20021;-88
2022/05/23 14:13:33;;;;;;;1.77;1.60;;;23.80;99.90;;;;;;5011190;28;20022;-88
2022/05/23 14:16:00;;;;;;;2.85;0.90;;;23.70;99.90;;;;;;5011309;28;20025;-90
2022/05/23 14:18:34;;;;;;;5.30;1.42;;;23.60;83.50;;;;;;5025930;28;20064;-83
2022/05/23 14:21:01;;;;;;;4.25;0.88;;;23.60;90.40;;;;;;5026248;28;20021;-88
2022/05/23 14:23:33;;;;;;;4.47;1.00;;;23.60;96.40;;;;;;5013757;28;20129;-87